sensor_id;sensor_type;location;lat;lon;timestamp;pressure;altitude;pressure_sealevel;temperature;humidity
78149;BME280;67396;42.664;23.382;2024-01-15T00:02:03;94428.66;;;-1.65;67.13
78149;BME280;67396;42.664;23.382;2024-01-15T00:04:28;94418.25;;;-1.75;68.04
78149;BME280;67396;42.664;23.382;2024-01-15T00:06:54;94423.44;;;-1.61;67.67
78149;BME280;67396;42.664;23.382;2024-01-15T00:09:19;94416.00;;;-1.64;67.94
78149;BME280;67396;42.664;23.382;2024-01-15T00:11:46;94417.31;;;-1.79;67.84
78149;BME280;67396;42.664;23.382;2024-01-15T00:14:12;94412.38;;;-1.68;68.05
78149;BME280;67396;42.664;23.382;2024-01-15T00:16:40;94411.56;;;-1.60;67.46
78149;BME280;67396;42.664;23.382;2024-01-15T00:19:05;94400.97;;;-1.65;67.74
78149;BME280;67396;42.664;23.382;2024-01-15T00:21:31;94410.81;;;-1.69;67.09
78149;BME280;67396;42.664;23.382;2024-01-15T00:23:56;94413.09;;;-1.97;67.82
78149;BME280;67396;42.664;23.382;2024-01-15T00:26:22;94415.00;;;-2.15;69.36
78149;BME280;67396;42.664;23.382;2024-01-15T00:28:48;94410.72;;;-2.16;69.86
78149;BME280;67396;42.664;23.382;2024-01-15T00:31:16;94417.53;;;-2.27;69.98
78149;BME280;67396;42.664;23.382;2024-01-15T00:33:41;94416.91;;;-2.41;70.65
78149;BME280;67396;42.664;23.382;2024-01-15T00:36:07;94415.63;;;-2.35;70.43
78149;BME280;67396;42.664;23.382;2024-01-15T00:38:32;94418.50;;;-2.23;70.06
78149;BME280;67396;42.664;23.382;2024-01-15T00:40:58;94411.69;;;-2.12;69.58
78149;BME280;67396;42.664;23.382;2024-01-15T00:43:23;94409.13;;;-2.08;69.56
78149;BME280;67396;42.664;23.382;2024-01-15T00:45:49;94412.94;;;-2.09;69.56
78149;BME280;67396;42.664;23.382;2024-01-15T00:48:14;94416.59;;;-2.14;69.68
78149;BME280;67396;42.664;23.382;2024-01-15T00:50:40;94412.94;;;-2.09;69.86
78149;BME280;67396;42.664;23.382;2024-01-15T00:53:05;94406.44;;;-2.00;69.42
78149;BME280;67396;42.664;23.382;2024-01-15T00:55:31;94409.28;;;-1.87;69.09
78149;BME280;67396;42.664;23.382;2024-01-15T00:57:56;94406.41;;;-1.82;69.05
78149;BME280;67396;42.664;23.382;2024-01-15T01:00:22;94402.94;;;-1.92;69.26
78149;BME280;67396;42.664;23.382;2024-01-15T01:02:47;94406.72;;;-1.93;69.10
78149;BME280;67396;42.664;23.382;2024-01-15T01:05:13;94413.06;;;-1.88;68.77
78149;BME280;67396;42.664;23.382;2024-01-15T01:07:38;94408.28;;;-1.83;68.64
78149;BME280;67396;42.664;23.382;2024-01-15T01:10:04;94408.94;;;-1.77;68.43
78149;BME280;67396;42.664;23.382;2024-01-15T01:12:30;94407.81;;;-1.76;67.97
78149;BME280;67396;42.664;23.382;2024-01-15T01:14:56;94398.50;;;-1.87;69.06
78149;BME280;67396;42.664;23.382;2024-01-15T01:17:22;94397.22;;;-1.81;68.65
78149;BME280;67396;42.664;23.382;2024-01-15T01:19:49;94401.22;;;-1.96;68.91
78149;BME280;67396;42.664;23.382;2024-01-15T01:22:15;94411.31;;;-1.93;69.03
78149;BME280;67396;42.664;23.382;2024-01-15T01:24:40;94409.75;;;-1.94;69.48
78149;BME280;67396;42.664;23.382;2024-01-15T01:27:06;94407.25;;;-2.08;69.81
78149;BME280;67396;42.664;23.382;2024-01-15T01:29:31;94398.53;;;-2.05;69.74
78149;BME280;67396;42.664;23.382;2024-01-15T01:31:57;94390.19;;;-2.20;70.09
78149;BME280;67396;42.664;23.382;2024-01-15T01:34:22;94383.06;;;-2.16;70.37
78149;BME280;67396;42.664;23.382;2024-01-15T01:36:48;94378.47;;;-2.07;69.71
78149;BME280;67396;42.664;23.382;2024-01-15T01:39:13;94383.66;;;-2.11;69.49
78149;BME280;67396;42.664;23.382;2024-01-15T01:41:39;94386.06;;;-2.18;69.61
78149;BME280;67396;42.664;23.382;2024-01-15T01:44:05;94375.94;;;-2.04;69.09
78149;BME280;67396;42.664;23.382;2024-01-15T01:46:31;94389.03;;;-2.02;69.21
78149;BME280;67396;42.664;23.382;2024-01-15T01:48:57;94395.03;;;-1.97;68.69
78149;BME280;67396;42.664;23.382;2024-01-15T01:51:24;94392.53;;;-2.19;70.25
78149;BME280;67396;42.664;23.382;2024-01-15T01:53:50;94387.63;;;-2.17;70.26
78149;BME280;67396;42.664;23.382;2024-01-15T01:56:17;94381.94;;;-2.15;69.83
78149;BME280;67396;42.664;23.382;2024-01-15T01:58:43;94377.53;;;-2.37;71.04
78149;BME280;67396;42.664;23.382;2024-01-15T02:01:10;94379.78;;;-2.48;71.20
78149;BME280;67396;42.664;23.382;2024-01-15T02:03:36;94366.03;;;-2.46;71.50
78149;BME280;67396;42.664;23.382;2024-01-15T02:06:02;94369.63;;;-2.34;70.98
78149;BME280;67396;42.664;23.382;2024-01-15T02:08:28;94372.47;;;-2.21;70.80
78149;BME280;67396;42.664;23.382;2024-01-15T02:10:54;94356.19;;;-2.25;70.45
78149;BME280;67396;42.664;23.382;2024-01-15T02:13:20;94369.00;;;-2.13;70.06
78149;BME280;67396;42.664;23.382;2024-01-15T02:15:46;94356.75;;;-2.02;69.69
78149;BME280;67396;42.664;23.382;2024-01-15T02:18:11;94348.22;;;-1.96;68.75
78149;BME280;67396;42.664;23.382;2024-01-15T02:20:37;94342.84;;;-1.96;68.70
78149;BME280;67396;42.664;23.382;2024-01-15T02:23:09;94339.66;;;-1.89;68.68
78149;BME280;67396;42.664;23.382;2024-01-15T02:25:37;94340.75;;;-1.90;68.46
78149;BME280;67396;42.664;23.382;2024-01-15T02:28:04;94331.91;;;-1.91;68.51
78149;BME280;67396;42.664;23.382;2024-01-15T02:30:30;94330.50;;;-1.97;68.75
78149;BME280;67396;42.664;23.382;2024-01-15T02:32:56;94297.59;;;-1.94;68.10
78149;BME280;67396;42.664;23.382;2024-01-15T02:35:22;94294.44;;;-1.96;67.79
78149;BME280;67396;42.664;23.382;2024-01-15T02:37:47;94303.28;;;-1.86;67.17
78149;BME280;67396;42.664;23.382;2024-01-15T02:40:13;94301.97;;;-1.80;66.63
78149;BME280;67396;42.664;23.382;2024-01-15T02:42:38;94306.41;;;-1.84;67.26
78149;BME280;67396;42.664;23.382;2024-01-15T02:45:04;94302.75;;;-1.80;67.20
78149;BME280;67396;42.664;23.382;2024-01-15T02:47:30;94294.91;;;-2.02;68.27
78149;BME280;67396;42.664;23.382;2024-01-15T02:49:55;94288.00;;;-2.03;68.23
78149;BME280;67396;42.664;23.382;2024-01-15T02:52:21;94297.19;;;-2.13;68.20
78149;BME280;67396;42.664;23.382;2024-01-15T02:54:46;94302.38;;;-2.08;67.91
78149;BME280;67396;42.664;23.382;2024-01-15T02:57:12;94293.50;;;-2.00;67.58
78149;BME280;67396;42.664;23.382;2024-01-15T02:59:37;94308.25;;;-2.06;67.32
78149;BME280;67396;42.664;23.382;2024-01-15T03:02:03;94297.97;;;-2.12;67.56
78149;BME280;67396;42.664;23.382;2024-01-15T03:04:28;94297.81;;;-2.07;67.63
78149;BME280;67396;42.664;23.382;2024-01-15T03:06:54;94286.75;;;-2.14;67.95
78149;BME280;67396;42.664;23.382;2024-01-15T03:09:19;94296.44;;;-2.31;68.14
78149;BME280;67396;42.664;23.382;2024-01-15T03:11:45;94299.94;;;-2.30;68.62
78149;BME280;67396;42.664;23.382;2024-01-15T03:14:10;94296.44;;;-2.22;68.06
78149;BME280;67396;42.664;23.382;2024-01-15T03:16:36;94289.94;;;-2.21;67.97
78149;BME280;67396;42.664;23.382;2024-01-15T03:19:01;94289.75;;;-2.16;67.73
78149;BME280;67396;42.664;23.382;2024-01-15T03:21:27;94288.81;;;-2.11;67.48
78149;BME280;67396;42.664;23.382;2024-01-15T03:23:52;94286.31;;;-2.25;68.13
78149;BME280;67396;42.664;23.382;2024-01-15T03:26:17;94292.97;;;-2.31;68.17
78149;BME280;67396;42.664;23.382;2024-01-15T03:28:43;94296.03;;;-2.58;68.54
78149;BME280;67396;42.664;23.382;2024-01-15T03:31:08;94287.66;;;-2.66;68.85
78149;BME280;67396;42.664;23.382;2024-01-15T03:33:34;94286.69;;;-2.52;68.56
78149;BME280;67396;42.664;23.382;2024-01-15T03:35:59;94279.88;;;-2.50;68.80
78149;BME280;67396;42.664;23.382;2024-01-15T03:38:28;94267.91;;;-2.70;69.20
78149;BME280;67396;42.664;23.382;2024-01-15T03:40:53;94277.84;;;-2.61;69.16
78149;BME280;67396;42.664;23.382;2024-01-15T03:43:19;94272.47;;;-2.61;69.17
78149;BME280;67396;42.664;23.382;2024-01-15T03:45:44;94267.75;;;-2.64;69.60
78149;BME280;67396;42.664;23.382;2024-01-15T03:48:11;94262.41;;;-2.90;70.46
78149;BME280;67396;42.664;23.382;2024-01-15T03:50:36;94278.19;;;-2.97;71.54
78149;BME280;67396;42.664;23.382;2024-01-15T03:53:02;94275.06;;;-2.91;71.31
78149;BME280;67396;42.664;23.382;2024-01-15T03:55:28;94276.78;;;-2.86;71.39
78149;BME280;67396;42.664;23.382;2024-01-15T03:57:53;94260.50;;;-2.81;71.06
78149;BME280;67396;42.664;23.382;2024-01-15T04:00:19;94267.00;;;-2.91;70.99
78149;BME280;67396;42.664;23.382;2024-01-15T04:02:44;94268.41;;;-3.02;71.66
78149;BME280;67396;42.664;23.382;2024-01-15T04:05:10;94270.47;;;-2.90;71.31
78149;BME280;67396;42.664;23.382;2024-01-15T04:07:35;94267.28;;;-2.75;70.62
78149;BME280;67396;42.664;23.382;2024-01-15T04:10:01;94250.84;;;-2.56;69.80
78149;BME280;67396;42.664;23.382;2024-01-15T04:12:26;94238.97;;;-2.55;70.06
78149;BME280;67396;42.664;23.382;2024-01-15T04:14:52;94237.84;;;-2.54;69.72
78149;BME280;67396;42.664;23.382;2024-01-15T04:17:17;94244.94;;;-2.41;69.48
78149;BME280;67396;42.664;23.382;2024-01-15T04:19:46;94251.59;;;-2.47;70.20
78149;BME280;67396;42.664;23.382;2024-01-15T04:22:13;94249.72;;;-2.47;69.40
78149;BME280;67396;42.664;23.382;2024-01-15T04:24:38;94251.09;;;-2.41;69.26
78149;BME280;67396;42.664;23.382;2024-01-15T04:27:04;94247.00;;;-2.38;69.59
78149;BME280;67396;42.664;23.382;2024-01-15T04:29:30;94261.84;;;-2.41;69.61
78149;BME280;67396;42.664;23.382;2024-01-15T04:31:55;94253.00;;;-2.41;69.59
78149;BME280;67396;42.664;23.382;2024-01-15T04:34:21;94256.16;;;-2.39;69.67
78149;BME280;67396;42.664;23.382;2024-01-15T04:36:46;94253.66;;;-2.53;69.73
78149;BME280;67396;42.664;23.382;2024-01-15T04:39:11;94256.22;;;-2.56;70.35
78149;BME280;67396;42.664;23.382;2024-01-15T04:41:39;94253.81;;;-2.49;70.06
78149;BME280;67396;42.664;23.382;2024-01-15T04:44:04;94249.53;;;-2.42;69.26
78149;BME280;67396;42.664;23.382;2024-01-15T04:46:30;94255.84;;;-2.38;69.38
78149;BME280;67396;42.664;23.382;2024-01-15T04:48:55;94244.97;;;-2.50;69.91
78149;BME280;67396;42.664;23.382;2024-01-15T04:51:21;94242.94;;;-2.61;69.99
78149;BME280;67396;42.664;23.382;2024-01-15T04:53:46;94235.16;;;-2.54;70.05
78149;BME280;67396;42.664;23.382;2024-01-15T04:56:12;94234.06;;;-2.53;70.25
78149;BME280;67396;42.664;23.382;2024-01-15T04:58:37;94235.34;;;-2.59;70.24
78149;BME280;67396;42.664;23.382;2024-01-15T05:01:03;94239.75;;;-2.63;70.23
78149;BME280;67396;42.664;23.382;2024-01-15T05:03:29;94224.41;;;-2.54;70.31
78149;BME280;67396;42.664;23.382;2024-01-15T05:05:55;94229.78;;;-2.54;70.25
78149;BME280;67396;42.664;23.382;2024-01-15T05:08:20;94223.50;;;-2.58;70.24
78149;BME280;67396;42.664;23.382;2024-01-15T05:10:46;94227.44;;;-2.56;70.29
78149;BME280;67396;42.664;23.382;2024-01-15T05:13:12;94227.06;;;-2.46;70.63
78149;BME280;67396;42.664;23.382;2024-01-15T05:15:37;94222.84;;;-2.47;70.28
78149;BME280;67396;42.664;23.382;2024-01-15T05:18:03;94215.91;;;-2.56;70.34
78149;BME280;67396;42.664;23.382;2024-01-15T05:20:29;94213.50;;;-2.49;70.53
78149;BME280;67396;42.664;23.382;2024-01-15T05:22:54;94213.34;;;-2.44;69.64
78149;BME280;67396;42.664;23.382;2024-01-15T05:25:20;94212.41;;;-2.48;69.73
78149;BME280;67396;42.664;23.382;2024-01-15T05:27:45;94213.84;;;-2.51;69.85
78149;BME280;67396;42.664;23.382;2024-01-15T05:30:11;94227.78;;;-2.66;70.32
78149;BME280;67396;42.664;23.382;2024-01-15T05:32:36;94220.03;;;-2.68;70.39
78149;BME280;67396;42.664;23.382;2024-01-15T05:35:02;94213.72;;;-2.72;70.04
78149;BME280;67396;42.664;23.382;2024-01-15T05:37:28;94200.81;;;-2.87;70.42
78149;BME280;67396;42.664;23.382;2024-01-15T05:39:53;94209.34;;;-2.85;71.04
78149;BME280;67396;42.664;23.382;2024-01-15T05:42:19;94207.56;;;-2.81;71.24
78149;BME280;67396;42.664;23.382;2024-01-15T05:44:44;94204.22;;;-2.60;70.76
78149;BME280;67396;42.664;23.382;2024-01-15T05:47:10;94208.78;;;-2.61;70.26
78149;BME280;67396;42.664;23.382;2024-01-15T05:49:35;94197.13;;;-2.65;69.96
78149;BME280;67396;42.664;23.382;2024-01-15T05:52:01;94185.25;;;-2.55;70.14
78149;BME280;67396;42.664;23.382;2024-01-15T05:54:27;94187.97;;;-2.64;70.46
78149;BME280;67396;42.664;23.382;2024-01-15T05:56:52;94188.09;;;-2.60;70.23
78149;BME280;67396;42.664;23.382;2024-01-15T05:59:17;94182.22;;;-2.54;70.34
78149;BME280;67396;42.664;23.382;2024-01-15T06:01:43;94177.63;;;-2.53;70.68
78149;BME280;67396;42.664;23.382;2024-01-15T06:04:09;94192.78;;;-2.40;79.95
78149;BME280;67396;42.664;23.382;2024-01-15T06:06:34;94206.31;;;-2.28;71.75
78149;BME280;67396;42.664;23.382;2024-01-15T06:09:00;94210.63;;;-2.36;70.80
78149;BME280;67396;42.664;23.382;2024-01-15T06:11:33;94211.97;;;-2.59;71.54
78149;BME280;67396;42.664;23.382;2024-01-15T06:13:59;94207.50;;;-2.55;72.12
78149;BME280;67396;42.664;23.382;2024-01-15T06:16:26;94207.19;;;-2.53;71.78
78149;BME280;67396;42.664;23.382;2024-01-15T06:18:51;94203.22;;;-2.39;71.46
78149;BME280;67396;42.664;23.382;2024-01-15T06:21:17;94207.03;;;-2.48;71.43
78149;BME280;67396;42.664;23.382;2024-01-15T06:23:42;94194.25;;;-2.60;72.41
78149;BME280;67396;42.664;23.382;2024-01-15T06:26:08;94189.69;;;-2.21;81.46
78149;BME280;67396;42.664;23.382;2024-01-15T06:28:33;94199.13;;;-1.77;77.38
78149;BME280;67396;42.664;23.382;2024-01-15T06:30:59;94189.66;;;-1.83;72.25
78149;BME280;67396;42.664;23.382;2024-01-15T06:33:25;94184.66;;;-1.94;70.95
78149;BME280;67396;42.664;23.382;2024-01-15T06:35:50;94193.75;;;-1.77;70.41
78149;BME280;67396;42.664;23.382;2024-01-15T06:38:16;94201.16;;;-1.74;69.23
78149;BME280;67396;42.664;23.382;2024-01-15T06:40:41;94201.50;;;-1.84;69.64
78149;BME280;67396;42.664;23.382;2024-01-15T06:43:14;94206.69;;;-1.29;69.17
78149;BME280;67396;42.664;23.382;2024-01-15T06:45:41;94184.59;;;-0.69;66.94
78149;BME280;67396;42.664;23.382;2024-01-15T06:48:06;94202.69;;;-0.36;65.75
78149;BME280;67396;42.664;23.382;2024-01-15T06:50:33;94213.97;;;-0.43;65.13
78149;BME280;67396;42.664;23.382;2024-01-15T06:52:58;94206.44;;;-1.16;66.86
78149;BME280;67396;42.664;23.382;2024-01-15T06:55:24;94195.81;;;-1.33;67.47
78149;BME280;67396;42.664;23.382;2024-01-15T06:57:49;94204.47;;;-1.27;67.38
78149;BME280;67396;42.664;23.382;2024-01-15T07:00:16;94218.38;;;-1.46;67.85
78149;BME280;67396;42.664;23.382;2024-01-15T07:02:41;94213.59;;;-1.61;69.08
78149;BME280;67396;42.664;23.382;2024-01-15T07:05:07;94211.84;;;-1.66;69.46
78149;BME280;67396;42.664;23.382;2024-01-15T07:07:33;94208.13;;;-2.03;70.98
78149;BME280;67396;42.664;23.382;2024-01-15T07:09:58;94227.38;;;-2.01;71.42
78149;BME280;67396;42.664;23.382;2024-01-15T07:12:23;94216.47;;;-1.96;71.49
78149;BME280;67396;42.664;23.382;2024-01-15T07:14:49;94205.94;;;-1.80;70.56
78149;BME280;67396;42.664;23.382;2024-01-15T07:17:15;94211.56;;;-1.94;71.40
78149;BME280;67396;42.664;23.382;2024-01-15T07:19:40;94217.13;;;-1.69;70.96
78149;BME280;67396;42.664;23.382;2024-01-15T07:22:06;94222.81;;;-1.71;70.75
78149;BME280;67396;42.664;23.382;2024-01-15T07:24:32;94224.06;;;-1.68;71.05
78149;BME280;67396;42.664;23.382;2024-01-15T07:26:59;94222.03;;;-1.71;71.30
78149;BME280;67396;42.664;23.382;2024-01-15T07:29:25;94214.09;;;-1.47;70.87
78149;BME280;67396;42.664;23.382;2024-01-15T07:31:51;94201.38;;;-1.38;70.28
78149;BME280;67396;42.664;23.382;2024-01-15T07:34:17;94201.19;;;-1.33;69.49
78149;BME280;67396;42.664;23.382;2024-01-15T07:36:44;94193.97;;;-1.41;69.92
78149;BME280;67396;42.664;23.382;2024-01-15T07:39:09;94196.53;;;-1.95;71.59
78149;BME280;67396;42.664;23.382;2024-01-15T07:41:35;94197.00;;;-2.86;73.77
78149;BME280;67396;42.664;23.382;2024-01-15T07:44:02;94217.44;;;-3.45;77.63
78149;BME280;67396;42.664;23.382;2024-01-15T07:46:27;94221.44;;;-3.99;80.09
78149;BME280;67396;42.664;23.382;2024-01-15T07:48:53;94207.06;;;-4.03;78.91
78149;BME280;67396;42.664;23.382;2024-01-15T07:51:24;94233.47;;;-4.28;80.48
78149;BME280;67396;42.664;23.382;2024-01-15T07:53:52;94226.41;;;-3.50;93.75
78149;BME280;67396;42.664;23.382;2024-01-15T07:56:18;94223.72;;;-3.07;89.19
78149;BME280;67396;42.664;23.382;2024-01-15T07:58:43;94218.50;;;-3.03;80.85
78149;BME280;67396;42.664;23.382;2024-01-15T08:01:09;94228.94;;;-3.45;79.47
78149;BME280;67396;42.664;23.382;2024-01-15T08:03:34;94215.31;;;-3.91;81.46
78149;BME280;67396;42.664;23.382;2024-01-15T08:06:00;94186.78;;;-3.78;84.24
78149;BME280;67396;42.664;23.382;2024-01-15T08:08:26;94179.88;;;-3.45;81.69
78149;BME280;67396;42.664;23.382;2024-01-15T08:10:54;94195.78;;;-3.23;80.69
78149;BME280;67396;42.664;23.382;2024-01-15T08:13:20;94189.81;;;-3.20;80.80
78149;BME280;67396;42.664;23.382;2024-01-15T08:15:46;94192.59;;;-3.08;78.53
78149;BME280;67396;42.664;23.382;2024-01-15T08:18:13;94213.44;;;-2.96;78.17
78149;BME280;67396;42.664;23.382;2024-01-15T08:20:39;94183.13;;;-2.88;77.33
78149;BME280;67396;42.664;23.382;2024-01-15T08:23:04;94193.88;;;-2.41;73.23
78149;BME280;67396;42.664;23.382;2024-01-15T08:25:30;94198.44;;;-2.33;73.77
78149;BME280;67396;42.664;23.382;2024-01-15T08:27:58;94206.97;;;-2.31;73.69
78149;BME280;67396;42.664;23.382;2024-01-15T08:30:24;94214.06;;;-2.27;74.50
78149;BME280;67396;42.664;23.382;2024-01-15T08:32:53;94203.66;;;-2.37;77.71
78149;BME280;67396;42.664;23.382;2024-01-15T08:35:19;94200.06;;;-2.41;78.03
78149;BME280;67396;42.664;23.382;2024-01-15T08:37:51;94180.50;;;-2.50;78.92
78149;BME280;67396;42.664;23.382;2024-01-15T08:40:17;94183.50;;;-2.51;79.30
78149;BME280;67396;42.664;23.382;2024-01-15T08:42:43;94181.00;;;-2.56;79.08
78149;BME280;67396;42.664;23.382;2024-01-15T08:45:09;94164.22;;;-2.53;79.00
78149;BME280;67396;42.664;23.382;2024-01-15T08:47:35;94178.72;;;-2.46;78.81
78149;BME280;67396;42.664;23.382;2024-01-15T08:50:02;94174.72;;;-2.31;78.19
78149;BME280;67396;42.664;23.382;2024-01-15T08:52:28;94158.50;;;-2.14;77.50
78149;BME280;67396;42.664;23.382;2024-01-15T08:54:56;94158.28;;;-2.00;77.40
78149;BME280;67396;42.664;23.382;2024-01-15T08:57:21;94170.09;;;-1.93;78.26
78149;BME280;67396;42.664;23.382;2024-01-15T08:59:47;94172.34;;;-1.95;77.50
78149;BME280;67396;42.664;23.382;2024-01-15T09:02:13;94167.13;;;-2.00;77.04
78149;BME280;67396;42.664;23.382;2024-01-15T09:04:39;94159.63;;;-1.85;77.32
78149;BME280;67396;42.664;23.382;2024-01-15T09:07:04;94162.97;;;-1.47;76.32
78149;BME280;67396;42.664;23.382;2024-01-15T09:09:30;94137.41;;;-1.20;72.63
78149;BME280;67396;42.664;23.382;2024-01-15T09:11:55;94142.06;;;-1.62;73.66
78149;BME280;67396;42.664;23.382;2024-01-15T09:14:21;94123.09;;;-1.86;75.84
78149;BME280;67396;42.664;23.382;2024-01-15T09:16:47;94118.53;;;-1.74;75.77
78149;BME280;67396;42.664;23.382;2024-01-15T09:19:13;94108.38;;;-1.47;75.63
78149;BME280;67396;42.664;23.382;2024-01-15T09:21:39;94094.97;;;-1.02;73.24
78149;BME280;67396;42.664;23.382;2024-01-15T09:24:05;94087.53;;;-1.18;72.46
78149;BME280;67396;42.664;23.382;2024-01-15T09:26:31;94083.50;;;-1.44;73.40
78149;BME280;67396;42.664;23.382;2024-01-15T09:28:57;94096.38;;;-1.50;74.35
78149;BME280;67396;42.664;23.382;2024-01-15T09:31:23;94094.50;;;-1.37;75.99
78149;BME280;67396;42.664;23.382;2024-01-15T09:33:49;94074.59;;;-0.67;79.41
78149;BME280;67396;42.664;23.382;2024-01-15T09:36:17;94088.53;;;-0.65;71.99
78149;BME280;67396;42.664;23.382;2024-01-15T09:38:43;94075.63;;;-1.17;72.79
78149;BME280;67396;42.664;23.382;2024-01-15T09:41:09;94080.88;;;-1.20;77.88
78149;BME280;67396;42.664;23.382;2024-01-15T09:43:35;94066.91;;;-1.01;73.72
78149;BME280;67396;42.664;23.382;2024-01-15T09:46:03;94070.06;;;-0.87;70.92
78149;BME280;67396;42.664;23.382;2024-01-15T09:48:29;94058.34;;;-0.70;68.57
78149;BME280;67396;42.664;23.382;2024-01-15T09:50:54;94061.66;;;-1.31;70.43
78149;BME280;67396;42.664;23.382;2024-01-15T09:53:20;94049.41;;;-1.73;72.23
78149;BME280;67396;42.664;23.382;2024-01-15T09:55:46;94042.91;;;-1.72;72.17
78149;BME280;67396;42.664;23.382;2024-01-15T09:58:12;94028.13;;;-1.66;72.92
78149;BME280;67396;42.664;23.382;2024-01-15T10:00:39;94034.75;;;-1.31;71.93
78149;BME280;67396;42.664;23.382;2024-01-15T10:03:07;94013.38;;;-1.48;71.79
78149;BME280;67396;42.664;23.382;2024-01-15T10:05:35;94022.84;;;-1.42;77.24
78149;BME280;67396;42.664;23.382;2024-01-15T10:08:01;94020.03;;;-1.78;77.21
78149;BME280;67396;42.664;23.382;2024-01-15T10:10:28;94030.72;;;-1.91;75.55
78149;BME280;67396;42.664;23.382;2024-01-15T10:12:55;94035.59;;;-1.51;74.71
78149;BME280;67396;42.664;23.382;2024-01-15T10:15:23;94026.66;;;-1.43;72.75
78149;BME280;67396;42.664;23.382;2024-01-15T10:17:50;94013.06;;;-1.79;73.56
78149;BME280;67396;42.664;23.382;2024-01-15T10:20:15;94022.78;;;-2.08;74.40
78149;BME280;67396;42.664;23.382;2024-01-15T10:22:42;93983.25;;;-2.07;73.40
78149;BME280;67396;42.664;23.382;2024-01-15T10:25:11;94008.19;;;-1.65;73.97
78149;BME280;67396;42.664;23.382;2024-01-15T10:27:37;93977.78;;;-1.33;70.53
78149;BME280;67396;42.664;23.382;2024-01-15T10:30:02;93996.38;;;-1.73;71.24
78149;BME280;67396;42.664;23.382;2024-01-15T10:32:28;93985.53;;;-1.97;72.98
78149;BME280;67396;42.664;23.382;2024-01-15T10:34:54;93985.53;;;-1.97;73.41
78149;BME280;67396;42.664;23.382;2024-01-15T10:37:20;93970.84;;;-2.00;73.90
78149;BME280;67396;42.664;23.382;2024-01-15T10:39:46;93965.38;;;-1.58;72.84
78149;BME280;67396;42.664;23.382;2024-01-15T10:42:12;93970.56;;;-1.53;73.32
78149;BME280;67396;42.664;23.382;2024-01-15T10:44:37;93965.06;;;-1.90;73.79
78149;BME280;67396;42.664;23.382;2024-01-15T10:47:04;93981.34;;;-1.86;80.21
78149;BME280;67396;42.664;23.382;2024-01-15T10:49:29;93960.50;;;-1.44;80.02
78149;BME280;67396;42.664;23.382;2024-01-15T10:51:56;93962.66;;;-1.01;75.13
78149;BME280;67396;42.664;23.382;2024-01-15T10:54:23;93954.34;;;-0.96;71.67
78149;BME280;67396;42.664;23.382;2024-01-15T10:56:50;93956.88;;;-1.48;73.38
78149;BME280;67396;42.664;23.382;2024-01-15T10:59:17;93962.66;;;-1.70;75.70
78149;BME280;67396;42.664;23.382;2024-01-15T11:01:45;93944.78;;;-1.54;74.92
78149;BME280;67396;42.664;23.382;2024-01-15T11:04:12;93938.53;;;-1.34;74.81
78149;BME280;67396;42.664;23.382;2024-01-15T11:06:44;93949.44;;;-0.82;72.35
78149;BME280;67396;42.664;23.382;2024-01-15T11:09:10;93935.75;;;-1.01;72.38
78149;BME280;67396;42.664;23.382;2024-01-15T11:11:40;93937.06;;;-1.31;73.75
78149;BME280;67396;42.664;23.382;2024-01-15T11:14:05;93940.78;;;-1.24;73.80
78149;BME280;67396;42.664;23.382;2024-01-15T11:19:18;93923.69;;;-0.55;72.49
78149;BME280;67396;42.664;23.382;2024-01-15T11:21:44;93916.41;;;-0.26;72.88
78149;BME280;67396;42.664;23.382;2024-01-15T11:24:10;93903.06;;;-0.63;71.11
78149;BME280;67396;42.664;23.382;2024-01-15T11:30:02;93900.56;;;-0.68;71.89
78149;BME280;67396;42.664;23.382;2024-01-15T11:31:56;93898.19;;;-0.17;70.26
78149;BME280;67396;42.664;23.382;2024-01-15T11:37:20;93911.00;;;0.29;74.51
78149;BME280;67396;42.664;23.382;2024-01-15T11:39:47;93898.47;;;0.21;71.07
78149;BME280;67396;42.664;23.382;2024-01-15T11:42:13;93900.16;;;0.26;68.08
78149;BME280;67396;42.664;23.382;2024-01-15T11:44:41;93886.16;;;0.52;67.82
78149;BME280;67396;42.664;23.382;2024-01-15T11:47:08;93888.31;;;0.62;67.01
78149;BME280;67396;42.664;23.382;2024-01-15T11:52:24;93891.72;;;-0.01;69.19
78149;BME280;67396;42.664;23.382;2024-01-15T11:55:00;93896.91;;;0.20;68.13
78149;BME280;67396;42.664;23.382;2024-01-15T11:57:42;93880.75;;;0.52;67.63
78149;BME280;67396;42.664;23.382;2024-01-15T12:00:11;93879.00;;;0.75;65.85
78149;BME280;67396;42.664;23.382;2024-01-15T12:02:41;93874.47;;;0.48;66.66
78149;BME280;67396;42.664;23.382;2024-01-15T12:05:08;93854.22;;;0.10;68.27
78149;BME280;67396;42.664;23.382;2024-01-15T12:07:34;93869.91;;;0.20;68.63
78149;BME280;67396;42.664;23.382;2024-01-15T12:10:01;93876.03;;;0.49;68.18
78149;BME280;67396;42.664;23.382;2024-01-15T12:12:48;93869.94;;;0.83;65.87
78149;BME280;67396;42.664;23.382;2024-01-15T12:15:17;93864.63;;;0.55;66.33
78149;BME280;67396;42.664;23.382;2024-01-15T12:17:42;93844.66;;;0.13;69.26
78149;BME280;67396;42.664;23.382;2024-01-15T12:20:08;93850.78;;;0.25;68.46
78149;BME280;67396;42.664;23.382;2024-01-15T12:22:34;93855.84;;;0.43;68.28
78149;BME280;67396;42.664;23.382;2024-01-15T12:25:00;93854.00;;;0.78;67.28
78149;BME280;67396;42.664;23.382;2024-01-15T12:27:25;93860.28;;;0.66;67.00
78149;BME280;67396;42.664;23.382;2024-01-15T12:29:53;93843.31;;;0.34;69.61
78149;BME280;67396;42.664;23.382;2024-01-15T12:32:19;93837.53;;;0.20;70.57
78149;BME280;67396;42.664;23.382;2024-01-15T12:34:46;93835.56;;;0.33;69.71
78149;BME280;67396;42.664;23.382;2024-01-15T12:37:12;93845.66;;;0.67;67.87
78149;BME280;67396;42.664;23.382;2024-01-15T12:39:37;93839.63;;;0.74;66.78
78149;BME280;67396;42.664;23.382;2024-01-15T12:42:03;93848.38;;;0.52;67.74
78149;BME280;67396;42.664;23.382;2024-01-15T12:44:31;93837.38;;;0.29;69.94
78149;BME280;67396;42.664;23.382;2024-01-15T12:46:56;93840.34;;;0.40;70.09
78149;BME280;67396;42.664;23.382;2024-01-15T12:49:23;93829.34;;;0.64;69.35
78149;BME280;67396;42.664;23.382;2024-01-15T12:51:59;93828.59;;;0.98;67.71
78149;BME280;67396;42.664;23.382;2024-01-15T12:54:25;93818.53;;;0.80;67.63
78149;BME280;67396;42.664;23.382;2024-01-15T12:56:51;93822.41;;;0.47;69.36